sensor_id;sensor_type;location;lat;lon;timestamp;P1;durP1;ratioP1;P2;durP2;ratioP2
28459;SDS011;32528;45.712;9.192;2023-05-10T00:01:34;12.15;;;5.93;;
28459;SDS011;32528;45.712;9.192;2023-05-10T00:03:35;12.45;;;6.97;;
28459;SDS011;32528;45.712;9.192;2023-05-10T00:05:36;11.45;;;6.75;;
28459;SDS011;32528;45.712;9.192;2023-05-10T00:07:36;10.25;;;6.50;;
28459;SDS011;32528;45.712;9.192;2023-05-10T00:09:37;12.77;;;5.90;;
28459;SDS011;32528;45.712;9.192;2023-05-10T00:11:38;11.07;;;5.90;;
28459;SDS011;32528;45.712;9.192;2023-05-10T00:13:38;10.57;;;5.90;;
28459;SDS011;32528;45.712;9.192;2023-05-10T00:19:42;9.43;;;5.47;;
28459;SDS011;32528;45.712;9.192;2023-05-10T00:21:43;11.00;;;6.22;;
28459;SDS011;32528;45.712;9.192;2023-05-10T00:23:44;8.80;;;6.07;;
28459;SDS011;32528;45.712;9.192;2023-05-10T00:25:44;12.55;;;6.80;;
28459;SDS011;32528;45.712;9.192;2023-05-10T00:27:45;10.65;;;6.57;;
28459;SDS011;32528;45.712;9.192;2023-05-10T00:29:46;8.98;;;5.13;;
28459;SDS011;32528;45.712;9.192;2023-05-10T00:31:46;9.63;;;6.07;;
28459;SDS011;32528;45.712;9.192;2023-05-10T00:33:47;9.07;;;5.18;;
28459;SDS011;32528;45.712;9.192;2023-05-10T00:35:48;14.68;;;6.13;;
28459;SDS011;32528;45.712;9.192;2023-05-10T00:41:50;11.43;;;5.97;;
28459;SDS011;32528;45.712;9.192;2023-05-10T00:43:52;13.05;;;6.13;;
28459;SDS011;32528;45.712;9.192;2023-05-10T00:45:52;9.90;;;5.53;;
28459;SDS011;32528;45.712;9.192;2023-05-10T00:47:53;10.32;;;6.15;;
28459;SDS011;32528;45.712;9.192;2023-05-10T00:49:56;9.27;;;5.78;;
28459;SDS011;32528;45.712;9.192;2023-05-10T00:51:57;7.25;;;4.70;;
28459;SDS011;32528;45.712;9.192;2023-05-10T00:53:58;9.43;;;5.57;;
28459;SDS011;32528;45.712;9.192;2023-05-10T00:55:59;12.95;;;6.25;;
28459;SDS011;32528;45.712;9.192;2023-05-10T00:58:00;8.35;;;4.57;;
28459;SDS011;32528;45.712;9.192;2023-05-10T01:00:01;12.55;;;5.82;;
28459;SDS011;32528;45.712;9.192;2023-05-10T01:02:04;10.52;;;5.32;;
28459;SDS011;32528;45.712;9.192;2023-05-10T01:04:06;13.82;;;5.53;;
28459;SDS011;32528;45.712;9.192;2023-05-10T01:06:07;9.55;;;5.22;;
28459;SDS011;32528;45.712;9.192;2023-05-10T01:08:07;8.55;;;5.03;;
28459;SDS011;32528;45.712;9.192;2023-05-10T01:10:09;16.42;;;5.38;;
28459;SDS011;32528;45.712;9.192;2023-05-10T01:12:11;12.25;;;3.95;;
28459;SDS011;32528;45.712;9.192;2023-05-10T01:14:12;7.35;;;4.63;;
28459;SDS011;32528;45.712;9.192;2023-05-10T01:16:14;8.20;;;4.70;;
28459;SDS011;32528;45.712;9.192;2023-05-10T01:18:15;9.05;;;5.00;;
28459;SDS011;32528;45.712;9.192;2023-05-10T01:20:20;13.55;;;4.47;;
28459;SDS011;32528;45.712;9.192;2023-05-10T01:34:20;9.90;;;3.97;;
28459;SDS011;32528;45.712;9.192;2023-05-10T01:36:27;8.18;;;3.08;;
28459;SDS011;32528;45.712;9.192;2023-05-10T01:38:36;5.72;;;3.13;;
28459;SDS011;32528;45.712;9.192;2023-05-10T01:40:40;5.15;;;2.65;;
28459;SDS011;32528;45.712;9.192;2023-05-10T01:42:53;5.78;;;2.20;;
28459;SDS011;32528;45.712;9.192;2023-05-10T01:45:02;4.30;;;2.22;;
28459;SDS011;32528;45.712;9.192;2023-05-10T01:47:30;12.15;;;2.72;;
28459;SDS011;32528;45.712;9.192;2023-05-10T01:49:39;6.07;;;2.97;;
28459;SDS011;32528;45.712;9.192;2023-05-10T01:51:50;5.07;;;2.63;;
28459;SDS011;32528;45.712;9.192;2023-05-10T01:53:58;8.00;;;2.83;;
28459;SDS011;32528;45.712;9.192;2023-05-10T01:56:01;9.52;;;2.90;;
28459;SDS011;32528;45.712;9.192;2023-05-10T01:58:05;5.32;;;3.15;;
28459;SDS011;32528;45.712;9.192;2023-05-10T02:00:09;4.50;;;2.63;;
28459;SDS011;32528;45.712;9.192;2023-05-10T02:02:17;5.30;;;2.85;;
28459;SDS011;32528;45.712;9.192;2023-05-10T02:04:22;5.38;;;2.70;;
28459;SDS011;32528;45.712;9.192;2023-05-10T02:06:25;6.13;;;3.50;;
28459;SDS011;32528;45.712;9.192;2023-05-10T02:08:27;5.25;;;3.03;;
28459;SDS011;32528;45.712;9.192;2023-05-10T02:10:29;5.78;;;3.42;;
28459;SDS011;32528;45.712;9.192;2023-05-10T02:12:31;5.85;;;2.92;;
28459;SDS011;32528;45.712;9.192;2023-05-10T02:14:35;5.38;;;2.92;;
28459;SDS011;32528;45.712;9.192;2023-05-10T02:16:37;5.47;;;2.95;;
28459;SDS011;32528;45.712;9.192;2023-05-10T02:18:39;7.95;;;3.20;;
28459;SDS011;32528;45.712;9.192;2023-05-10T02:20:41;6.95;;;2.88;;
28459;SDS011;32528;45.712;9.192;2023-05-10T02:22:43;5.88;;;3.00;;
28459;SDS011;32528;45.712;9.192;2023-05-10T02:24:49;7.32;;;3.03;;
28459;SDS011;32528;45.712;9.192;2023-05-10T02:26:51;6.20;;;3.20;;
28459;SDS011;32528;45.712;9.192;2023-05-10T02:28:54;6.20;;;3.00;;
28459;SDS011;32528;45.712;9.192;2023-05-10T02:30:57;6.05;;;2.85;;
28459;SDS011;32528;45.712;9.192;2023-05-10T02:32:58;13.18;;;3.25;;
28459;SDS011;32528;45.712;9.192;2023-05-10T02:34:59;8.00;;;3.33;;
28459;SDS011;32528;45.712;9.192;2023-05-10T02:37:03;4.88;;;2.80;;
28459;SDS011;32528;45.712;9.192;2023-05-10T02:39:05;6.60;;;3.17;;
28459;SDS011;32528;45.712;9.192;2023-05-10T02:43:12;7.18;;;3.33;;
28459;SDS011;32528;45.712;9.192;2023-05-10T02:45:15;7.43;;;3.78;;
28459;SDS011;32528;45.712;9.192;2023-05-10T02:49:20;6.07;;;3.20;;
28459;SDS011;32528;45.712;9.192;2023-05-10T02:51:22;6.65;;;3.35;;
28459;SDS011;32528;45.712;9.192;2023-05-10T02:53:30;7.95;;;3.45;;
28459;SDS011;32528;45.712;9.192;2023-05-10T02:55:32;5.30;;;3.20;;
28459;SDS011;32528;45.712;9.192;2023-05-10T03:01:43;4.68;;;2.55;;
28459;SDS011;32528;45.712;9.192;2023-05-10T03:03:43;8.73;;;3.25;;
28459;SDS011;32528;45.712;9.192;2023-05-10T03:05:44;5.80;;;2.90;;
28459;SDS011;32528;45.712;9.192;2023-05-10T03:07:45;5.68;;;3.33;;
28459;SDS011;32528;45.712;9.192;2023-05-10T03:09:48;5.93;;;3.10;;
28459;SDS011;32528;45.712;9.192;2023-05-10T03:16:14;5.90;;;2.72;;
28459;SDS011;32528;45.712;9.192;2023-05-10T03:18:28;11.68;;;3.20;;
28459;SDS011;32528;45.712;9.192;2023-05-10T03:20:36;7.45;;;2.95;;
28459;SDS011;32528;45.712;9.192;2023-05-10T03:22:47;6.60;;;3.15;;
28459;SDS011;32528;45.712;9.192;2023-05-10T03:24:53;6.15;;;3.22;;
28459;SDS011;32528;45.712;9.192;2023-05-10T03:27:01;7.97;;;3.20;;
28459;SDS011;32528;45.712;9.192;2023-05-10T03:29:05;7.67;;;3.67;;
28459;SDS011;32528;45.712;9.192;2023-05-10T03:31:07;6.20;;;2.90;;
28459;SDS011;32528;45.712;9.192;2023-05-10T03:33:09;6.00;;;2.95;;
28459;SDS011;32528;45.712;9.192;2023-05-10T03:35:15;6.93;;;2.80;;
28459;SDS011;32528;45.712;9.192;2023-05-10T03:37:16;5.38;;;2.80;;
28459;SDS011;32528;45.712;9.192;2023-05-10T03:39:17;3.53;;;1.80;;
28459;SDS011;32528;45.712;9.192;2023-05-10T03:41:23;5.65;;;2.15;;
28459;SDS011;32528;45.712;9.192;2023-05-10T03:43:25;5.15;;;2.50;;
28459;SDS011;32528;45.712;9.192;2023-05-10T03:45:26;4.60;;;2.67;;
28459;SDS011;32528;45.712;9.192;2023-05-10T03:47:27;5.13;;;2.95;;
28459;SDS011;32528;45.712;9.192;2023-05-10T03:49:28;9.38;;;3.75;;
28459;SDS011;32528;45.712;9.192;2023-05-10T03:51:28;6.22;;;3.08;;
28459;SDS011;32528;45.712;9.192;2023-05-10T03:53:31;3.65;;;2.22;;
28459;SDS011;32528;45.712;9.192;2023-05-10T03:55:31;5.63;;;2.45;;
28459;SDS011;32528;45.712;9.192;2023-05-10T03:57:34;7.03;;;3.35;;
28459;SDS011;32528;45.712;9.192;2023-05-10T03:59:36;4.50;;;2.63;;
28459;SDS011;32528;45.712;9.192;2023-05-10T04:01:37;8.40;;;3.13;;
28459;SDS011;32528;45.712;9.192;2023-05-10T04:03:38;6.18;;;3.00;;
28459;SDS011;32528;45.712;9.192;2023-05-10T04:05:39;6.13;;;2.85;;
28459;SDS011;32528;45.712;9.192;2023-05-10T04:07:40;7.10;;;2.75;;
28459;SDS011;32528;45.712;9.192;2023-05-10T04:09:41;4.40;;;2.80;;
28459;SDS011;32528;45.712;9.192;2023-05-10T04:11:42;4.80;;;2.22;;
28459;SDS011;32528;45.712;9.192;2023-05-10T04:13:43;8.18;;;3.55;;
28459;SDS011;32528;45.712;9.192;2023-05-10T04:15:44;9.15;;;3.58;;
28459;SDS011;32528;45.712;9.192;2023-05-10T04:17:45;9.13;;;3.85;;
28459;SDS011;32528;45.712;9.192;2023-05-10T04:19:46;5.97;;;3.20;;
28459;SDS011;32528;45.712;9.192;2023-05-10T04:21:46;5.72;;;3.10;;
28459;SDS011;32528;45.712;9.192;2023-05-10T04:23:47;5.90;;;3.17;;
28459;SDS011;32528;45.712;9.192;2023-05-10T04:25:48;6.18;;;2.78;;
28459;SDS011;32528;45.712;9.192;2023-05-10T04:27:49;5.72;;;2.85;;
28459;SDS011;32528;45.712;9.192;2023-05-10T04:29:50;6.95;;;3.55;;
28459;SDS011;32528;45.712;9.192;2023-05-10T04:31:51;9.57;;;4.25;;
28459;SDS011;32528;45.712;9.192;2023-05-10T04:33:53;4.40;;;2.28;;
28459;SDS011;32528;45.712;9.192;2023-05-10T04:35:55;5.03;;;2.90;;
28459;SDS011;32528;45.712;9.192;2023-05-10T04:37:56;5.25;;;2.78;;
28459;SDS011;32528;45.712;9.192;2023-05-10T04:39:57;5.13;;;2.67;;
28459;SDS011;32528;45.712;9.192;2023-05-10T04:41:59;6.20;;;3.55;;
28459;SDS011;32528;45.712;9.192;2023-05-10T04:54:08;9.23;;;2.47;;
28459;SDS011;32528;45.712;9.192;2023-05-10T04:56:09;6.03;;;2.90;;
28459;SDS011;32528;45.712;9.192;2023-05-10T04:58:09;6.07;;;3.08;;
28459;SDS011;32528;45.712;9.192;2023-05-10T05:08:13;5.97;;;3.15;;
28459;SDS011;32528;45.712;9.192;2023-05-10T05:10:14;4.93;;;2.80;;
28459;SDS011;32528;45.712;9.192;2023-05-10T05:12:16;6.07;;;2.67;;
28459;SDS011;32528;45.712;9.192;2023-05-10T05:14:17;5.80;;;3.33;;
28459;SDS011;32528;45.712;9.192;2023-05-10T05:16:18;6.32;;;2.63;;
28459;SDS011;32528;45.712;9.192;2023-05-10T05:18:19;7.38;;;3.40;;
28459;SDS011;32528;45.712;9.192;2023-05-10T05:20:19;6.75;;;3.80;;
28459;SDS011;32528;45.712;9.192;2023-05-10T05:22:20;7.70;;;3.30;;
28459;SDS011;32528;45.712;9.192;2023-05-10T05:24:27;5.55;;;2.97;;
28459;SDS011;32528;45.712;9.192;2023-05-10T05:26:28;8.27;;;3.40;;
28459;SDS011;32528;45.712;9.192;2023-05-10T05:28:29;8.13;;;3.55;;
28459;SDS011;32528;45.712;9.192;2023-05-10T05:30:32;5.30;;;2.65;;
28459;SDS011;32528;45.712;9.192;2023-05-10T05:34:34;5.50;;;2.83;;
28459;SDS011;32528;45.712;9.192;2023-05-10T05:36:38;6.55;;;2.95;;
28459;SDS011;32528;45.712;9.192;2023-05-10T05:38:38;5.82;;;2.80;;
28459;SDS011;32528;45.712;9.192;2023-05-10T05:40:39;8.10;;;2.15;;
28459;SDS011;32528;45.712;9.192;2023-05-10T05:42:40;6.55;;;3.22;;
28459;SDS011;32528;45.712;9.192;2023-05-10T05:44:41;4.90;;;2.72;;
28459;SDS011;32528;45.712;9.192;2023-05-10T05:46:42;5.13;;;2.67;;
28459;SDS011;32528;45.712;9.192;2023-05-10T05:54:46;8.38;;;2.88;;
28459;SDS011;32528;45.712;9.192;2023-05-10T05:56:47;7.97;;;2.97;;
28459;SDS011;32528;45.712;9.192;2023-05-10T05:58:47;6.72;;;3.00;;
28459;SDS011;32528;45.712;9.192;2023-05-10T06:00:49;9.02;;;3.75;;
28459;SDS011;32528;45.712;9.192;2023-05-10T06:02:51;6.43;;;3.35;;
28459;SDS011;32528;45.712;9.192;2023-05-10T06:04:52;8.50;;;3.65;;
28459;SDS011;32528;45.712;9.192;2023-05-10T06:06:53;5.95;;;3.63;;
28459;SDS011;32528;45.712;9.192;2023-05-10T06:08:54;10.35;;;3.40;;
28459;SDS011;32528;45.712;9.192;2023-05-10T06:10:55;6.68;;;3.22;;
28459;SDS011;32528;45.712;9.192;2023-05-10T06:12:56;7.75;;;3.50;;
28459;SDS011;32528;45.712;9.192;2023-05-10T06:16:57;4.95;;;2.78;;
28459;SDS011;32528;45.712;9.192;2023-05-10T06:18:59;6.20;;;3.05;;
28459;SDS011;32528;45.712;9.192;2023-05-10T06:21:00;6.90;;;3.40;;
28459;SDS011;32528;45.712;9.192;2023-05-10T06:23:01;9.15;;;2.75;;
28459;SDS011;32528;45.712;9.192;2023-05-10T06:25:01;5.82;;;2.65;;
28459;SDS011;32528;45.712;9.192;2023-05-10T06:27:02;5.45;;;2.58;;
28459;SDS011;32528;45.712;9.192;2023-05-10T06:29:04;5.35;;;2.97;;
28459;SDS011;32528;45.712;9.192;2023-05-10T06:31:05;8.82;;;2.88;;
28459;SDS011;32528;45.712;9.192;2023-05-10T06:33:06;4.50;;;2.20;;
28459;SDS011;32528;45.712;9.192;2023-05-10T06:35:07;6.03;;;2.97;;
28459;SDS011;32528;45.712;9.192;2023-05-10T06:37:08;5.40;;;2.70;;
28459;SDS011;32528;45.712;9.192;2023-05-10T06:39:09;5.35;;;3.05;;
28459;SDS011;32528;45.712;9.192;2023-05-10T06:41:11;4.35;;;2.25;;
28459;SDS011;32528;45.712;9.192;2023-05-10T06:43:12;4.43;;;2.30;;
28459;SDS011;32528;45.712;9.192;2023-05-10T06:45:13;4.63;;;2.45;;
28459;SDS011;32528;45.712;9.192;2023-05-10T06:47:15;7.57;;;2.72;;
28459;SDS011;32528;45.712;9.192;2023-05-10T06:49:15;7.57;;;2.80;;
28459;SDS011;32528;45.712;9.192;2023-05-10T06:51:16;6.65;;;2.95;;
28459;SDS011;32528;45.712;9.192;2023-05-10T06:53:18;8.48;;;2.90;;
28459;SDS011;32528;45.712;9.192;2023-05-10T06:55:18;5.07;;;2.50;;
28459;SDS011;32528;45.712;9.192;2023-05-10T06:57:19;5.45;;;2.65;;
28459;SDS011;32528;45.712;9.192;2023-05-10T06:59:21;4.68;;;2.40;;
28459;SDS011;32528;45.712;9.192;2023-05-10T07:01:22;4.78;;;2.72;;
28459;SDS011;32528;45.712;9.192;2023-05-10T07:03:23;7.03;;;2.70;;
28459;SDS011;32528;45.712;9.192;2023-05-10T07:05:24;6.75;;;3.20;;
28459;SDS011;32528;45.712;9.192;2023-05-10T07:07:24;6.60;;;2.70;;
28459;SDS011;32528;45.712;9.192;2023-05-10T07:09:25;7.47;;;3.10;;
28459;SDS011;32528;45.712;9.192;2023-05-10T07:11:26;6.57;;;3.10;;
28459;SDS011;32528;45.712;9.192;2023-05-10T07:13:27;7.90;;;3.10;;
28459;SDS011;32528;45.712;9.192;2023-05-10T07:15:28;10.73;;;3.33;;
28459;SDS011;32528;45.712;9.192;2023-05-10T07:19:29;6.28;;;2.47;;
28459;SDS011;32528;45.712;9.192;2023-05-10T07:21:31;5.30;;;1.98;;
28459;SDS011;32528;45.712;9.192;2023-05-10T07:23:32;7.07;;;2.60;;
28459;SDS011;32528;45.712;9.192;2023-05-10T07:25:34;7.65;;;3.33;;
28459;SDS011;32528;45.712;9.192;2023-05-10T07:27:35;5.95;;;3.15;;
28459;SDS011;32528;45.712;9.192;2023-05-10T07:29:36;6.93;;;3.47;;
28459;SDS011;32528;45.712;9.192;2023-05-10T07:31:37;6.65;;;2.75;;
28459;SDS011;32528;45.712;9.192;2023-05-10T07:33:38;5.47;;;2.90;;
28459;SDS011;32528;45.712;9.192;2023-05-10T07:35:38;4.90;;;2.80;;
28459;SDS011;32528;45.712;9.192;2023-05-10T07:37:39;6.72;;;3.30;;
28459;SDS011;32528;45.712;9.192;2023-05-10T07:41:40;6.55;;;2.70;;
28459;SDS011;32528;45.712;9.192;2023-05-10T07:45:42;4.07;;;2.47;;
28459;SDS011;32528;45.712;9.192;2023-05-10T07:47:43;8.73;;;2.60;;
28459;SDS011;32528;45.712;9.192;2023-05-10T07:49:44;5.65;;;2.72;;
28459;SDS011;32528;45.712;9.192;2023-05-10T07:51:45;5.90;;;2.80;;
28459;SDS011;32528;45.712;9.192;2023-05-10T07:53:46;6.18;;;2.40;;
28459;SDS011;32528;45.712;9.192;2023-05-10T07:55:50;7.93;;;3.00;;
28459;SDS011;32528;45.712;9.192;2023-05-10T07:57:51;5.07;;;2.65;;
28459;SDS011;32528;45.712;9.192;2023-05-10T07:59:52;5.35;;;2.65;;
28459;SDS011;32528;45.712;9.192;2023-05-10T08:01:53;7.82;;;2.95;;
28459;SDS011;32528;45.712;9.192;2023-05-10T08:03:54;5.03;;;2.70;;
28459;SDS011;32528;45.712;9.192;2023-05-10T08:05:55;5.28;;;2.65;;
28459;SDS011;32528;45.712;9.192;2023-05-10T08:07:55;5.30;;;3.00;;
28459;SDS011;32528;45.712;9.192;2023-05-10T08:09:56;5.20;;;2.88;;
28459;SDS011;32528;45.712;9.192;2023-05-10T08:11:57;6.50;;;3.17;;
28459;SDS011;32528;45.712;9.192;2023-05-10T08:13:59;6.50;;;2.63;;
28459;SDS011;32528;45.712;9.192;2023-05-10T08:16:00;5.57;;;2.50;;
28459;SDS011;32528;45.712;9.192;2023-05-10T08:18:01;6.32;;;3.17;;
28459;SDS011;32528;45.712;9.192;2023-05-10T08:20:02;4.57;;;2.33;;
28459;SDS011;32528;45.712;9.192;2023-05-10T08:22:03;6.20;;;3.13;;
28459;SDS011;32528;45.712;9.192;2023-05-10T08:24:04;5.68;;;2.72;;
28459;SDS011;32528;45.712;9.192;2023-05-10T08:26:05;8.93;;;2.95;;
28459;SDS011;32528;45.712;9.192;2023-05-10T08:28:06;6.40;;;3.20;;
28459;SDS011;32528;45.712;9.192;2023-05-10T08:30:08;8.27;;;3.97;;
28459;SDS011;32528;45.712;9.192;2023-05-10T08:32:09;8.50;;;4.15;;
28459;SDS011;32528;45.712;9.192;2023-05-10T08:34:09;8.10;;;3.77;;
28459;SDS011;32528;45.712;9.192;2023-05-10T08:36:10;9.77;;;4.90;;
28459;SDS011;32528;45.712;9.192;2023-05-10T08:38:14;7.13;;;3.78;;
28459;SDS011;32528;45.712;9.192;2023-05-10T08:40:14;11.45;;;4.10;;
28459;SDS011;32528;45.712;9.192;2023-05-10T08:42:16;8.80;;;3.83;;
28459;SDS011;32528;45.712;9.192;2023-05-10T08:44:21;6.22;;;3.88;;
28459;SDS011;32528;45.712;9.192;2023-05-10T08:46:22;6.15;;;3.72;;
28459;SDS011;32528;45.712;9.192;2023-05-10T08:48:23;9.70;;;4.35;;
28459;SDS011;32528;45.712;9.192;2023-05-10T08:50:25;7.68;;;4.35;;
28459;SDS011;32528;45.712;9.192;2023-05-10T08:52:26;7.57;;;3.60;;
28459;SDS011;32528;45.712;9.192;2023-05-10T08:54:31;8.02;;;4.18;;
28459;SDS011;32528;45.712;9.192;2023-05-10T08:56:33;8.52;;;4.43;;
28459;SDS011;32528;45.712;9.192;2023-05-10T08:58:33;7.63;;;3.92;;
28459;SDS011;32528;45.712;9.192;2023-05-10T09:00:34;6.78;;;3.97;;
28459;SDS011;32528;45.712;9.192;2023-05-10T09:02:37;7.57;;;4.30;;
28459;SDS011;32528;45.712;9.192;2023-05-10T09:04:37;6.72;;;3.28;;
28459;SDS011;32528;45.712;9.192;2023-05-10T09:16:46;6.47;;;2.78;;
28459;SDS011;32528;45.712;9.192;2023-05-10T09:22:50;6.13;;;3.25;;
28459;SDS011;32528;45.712;9.192;2023-05-10T09:25:03;5.22;;;3.08;;
28459;SDS011;32528;45.712;9.192;2023-05-10T09:27:08;9.23;;;4.30;;
28459;SDS011;32528;45.712;9.192;2023-05-10T09:31:12;5.15;;;3.47;;
28459;SDS011;32528;45.712;9.192;2023-05-10T09:33:13;7.15;;;3.50;;
28459;SDS011;32528;45.712;9.192;2023-05-10T09:35:16;6.55;;;3.28;;
28459;SDS011;32528;45.712;9.192;2023-05-10T09:37:19;8.15;;;3.63;;
28459;SDS011;32528;45.712;9.192;2023-05-10T09:39:30;8.98;;;2.88;;
28459;SDS011;32528;45.712;9.192;2023-05-10T09:41:35;9.68;;;3.72;;
28459;SDS011;32528;45.712;9.192;2023-05-10T09:43:39;6.82;;;3.20;;
28459;SDS011;32528;45.712;9.192;2023-05-10T09:45:40;6.20;;;3.28;;
28459;SDS011;32528;45.712;9.192;2023-05-10T09:47:41;6.93;;;3.13;;
28459;SDS011;32528;45.712;9.192;2023-05-10T09:49:42;6.13;;;3.40;;
28459;SDS011;32528;45.712;9.192;2023-05-10T09:51:43;6.35;;;3.13;;
28459;SDS011;32528;45.712;9.192;2023-05-10T09:53:43;8.43;;;3.67;;
28459;SDS011;32528;45.712;9.192;2023-05-10T09:55:45;9.45;;;3.65;;
28459;SDS011;32528;45.712;9.192;2023-05-10T09:57:46;6.55;;;3.70;;
28459;SDS011;32528;45.712;9.192;2023-05-10T09:59:49;5.50;;;3.28;;
28459;SDS011;32528;45.712;9.192;2023-05-10T10:01:50;5.60;;;3.80;;
28459;SDS011;32528;45.712;9.192;2023-05-10T10:03:52;10.88;;;3.60;;
28459;SDS011;32528;45.712;9.192;2023-05-10T10:05:53;6.35;;;3.75;;
28459;SDS011;32528;45.712;9.192;2023-05-10T10:08:00;8.85;;;4.15;;
28459;SDS011;32528;45.712;9.192;2023-05-10T10:10:03;8.48;;;4.80;;
28459;SDS011;32528;45.712;9.192;2023-05-10T10:12:05;11.55;;;4.47;;
28459;SDS011;32528;45.712;9.192;2023-05-10T10:14:05;8.00;;;5.15;;
28459;SDS011;32528;45.712;9.192;2023-05-10T10:16:07;8.63;;;5.25;;
28459;SDS011;32528;45.712;9.192;2023-05-10T10:18:12;8.07;;;5.28;;
28459;SDS011;32528;45.712;9.192;2023-05-10T10:20:15;8.45;;;4.82;;
28459;SDS011;32528;45.712;9.192;2023-05-10T10:22:16;8.88;;;5.20;;
28459;SDS011;32528;45.712;9.192;2023-05-10T10:24:17;8.93;;;5.57;;
28459;SDS011;32528;45.712;9.192;2023-05-10T10:26:18;9.25;;;5.65;;
28459;SDS011;32528;45.712;9.192;2023-05-10T10:28:23;10.90;;;5.45;;
28459;SDS011;32528;45.712;9.192;2023-05-10T10:32:49;11.32;;;5.78;;
28459;SDS011;32528;45.712;9.192;2023-05-10T10:34:58;10.23;;;6.30;;
28459;SDS011;32528;45.712;9.192;2023-05-10T10:37:03;10.55;;;6.30;;
28459;SDS011;32528;45.712;9.192;2023-05-10T10:39:08;8.23;;;6.25;;
28459;SDS011;32528;45.712;9.192;2023-05-10T10:41:11;9.55;;;6.32;;
28459;SDS011;32528;45.712;9.192;2023-05-10T10:43:37;8.75;;;5.75;;
28459;SDS011;32528;45.712;9.192;2023-05-10T10:45:38;9.35;;;6.60;;
28459;SDS011;32528;45.712;9.192;2023-05-10T10:47:40;6.95;;;5.25;;
28459;SDS011;32528;45.712;9.192;2023-05-10T10:49:44;9.50;;;5.35;;
28459;SDS011;32528;45.712;9.192;2023-05-10T10:54:31;17.98;;;6.95;;
28459;SDS011;32528;45.712;9.192;2023-05-10T10:56:32;8.93;;;6.72;;
28459;SDS011;32528;45.712;9.192;2023-05-10T10:58:33;9.23;;;6.63;;
28459;SDS011;32528;45.712;9.192;2023-05-10T11:00:36;11.30;;;7.30;;
28459;SDS011;32528;45.712;9.192;2023-05-10T11:04:42;9.73;;;7.18;;
28459;SDS011;32528;45.712;9.192;2023-05-10T11:06:46;14.82;;;6.22;;
28459;SDS011;32528;45.712;9.192;2023-05-10T11:08:47;11.25;;;6.15;;
28459;SDS011;32528;45.712;9.192;2023-05-10T11:10:51;7.97;;;6.05;;
28459;SDS011;32528;45.712;9.192;2023-05-10T11:13:01;9.48;;;6.32;;
28459;SDS011;32528;45.712;9.192;2023-05-10T11:15:08;11.98;;;6.50;;
28459;SDS011;32528;45.712;9.192;2023-05-10T11:17:22;12.93;;;7.47;;
28459;SDS011;32528;45.712;9.192;2023-05-10T11:19:30;11.93;;;7.78;;
28459;SDS011;32528;45.712;9.192;2023-05-10T11:21:31;10.05;;;7.57;;
28459;SDS011;32528;45.712;9.192;2023-05-10T11:25:40;11.95;;;7.72;;
28459;SDS011;32528;45.712;9.192;2023-05-10T11:27:46;14.02;;;7.07;;
28459;SDS011;32528;45.712;9.192;2023-05-10T11:29:51;15.00;;;7.72;;
28459;SDS011;32528;45.712;9.192;2023-05-10T11:33:53;9.25;;;6.47;;
28459;SDS011;32528;45.712;9.192;2023-05-10T11:35:57;10.45;;;7.32;;
28459;SDS011;32528;45.712;9.192;2023-05-10T11:37:57;8.93;;;5.82;;
28459;SDS011;32528;45.712;9.192;2023-05-10T11:39:58;11.57;;;6.07;;
28459;SDS011;32528;45.712;9.192;2023-05-10T11:41:59;9.52;;;6.63;;
28459;SDS011;32528;45.712;9.192;2023-05-10T11:44:00;10.32;;;6.03;;
28459;SDS011;32528;45.712;9.192;2023-05-10T11:46:02;16.30;;;7.10;;
28459;SDS011;32528;45.712;9.192;2023-05-10T11:48:04;10.70;;;6.13;;
28459;SDS011;32528;45.712;9.192;2023-05-10T11:50:05;8.90;;;6.57;;
28459;SDS011;32528;45.712;9.192;2023-05-10T11:52:08;10.65;;;6.25;;
28459;SDS011;32528;45.712;9.192;2023-05-10T11:54:09;8.98;;;6.22;;
28459;SDS011;32528;45.712;9.192;2023-05-10T12:02:16;7.93;;;4.85;;
28459;SDS011;32528;45.712;9.192;2023-05-10T12:04:17;8.10;;;4.40;;
28459;SDS011;32528;45.712;9.192;2023-05-10T12:06:18;13.98;;;5.20;;
28459;SDS011;32528;45.712;9.192;2023-05-10T12:08:21;10.60;;;4.50;;
28459;SDS011;32528;45.712;9.192;2023-05-10T12:10:26;8.25;;;5.25;;
28459;SDS011;32528;45.712;9.192;2023-05-10T12:12:42;8.40;;;4.85;;
28459;SDS011;32528;45.712;9.192;2023-05-10T12:14:50;7.78;;;5.55;;
28459;SDS011;32528;45.712;9.192;2023-05-10T12:16:52;9.63;;;5.55;;
28459;SDS011;32528;45.712;9.192;2023-05-10T12:18:54;8.50;;;5.40;;
28459;SDS011;32528;45.712;9.192;2023-05-10T12:21:02;11.38;;;6.28;;
28459;SDS011;32528;45.712;9.192;2023-05-10T12:23:03;10.75;;;6.20;;
28459;SDS011;32528;45.712;9.192;2023-05-10T12:25:05;10.50;;;5.65;;
28459;SDS011;32528;45.712;9.192;2023-05-10T12:27:08;9.20;;;5.07;;
28459;SDS011;32528;45.712;9.192;2023-05-10T12:31:15;11.60;;;5.40;;
28459;SDS011;32528;45.712;9.192;2023-05-10T12:33:17;9.80;;;6.32;;
28459;SDS011;32528;45.712;9.192;2023-05-10T12:39:40;9.48;;;5.20;;
28459;SDS011;32528;45.712;9.192;2023-05-10T12:41:42;11.32;;;5.63;;
28459;SDS011;32528;45.712;9.192;2023-05-10T12:43:43;9.95;;;6.90;;
28459;SDS011;32528;45.712;9.192;2023-05-10T12:45:46;16.25;;;6.43;;
28459;SDS011;32528;45.712;9.192;2023-05-10T12:47:48;7.20;;;5.43;;
28459;SDS011;32528;45.712;9.192;2023-05-10T12:49:51;13.88;;;5.40;;
28459;SDS011;32528;45.712;9.192;2023-05-10T12:51:51;12.00;;;6.53;;
28459;SDS011;32528;45.712;9.192;2023-05-10T12:53:52;9.68;;;5.22;;
28459;SDS011;32528;45.712;9.192;2023-05-10T12:55:53;9.07;;;6.13;;
28459;SDS011;32528;45.712;9.192;2023-05-10T12:57:53;10.35;;;6.15;;
28459;SDS011;32528;45.712;9.192;2023-05-10T12:59:54;8.20;;;5.32;;
28459;SDS011;32528;45.712;9.192;2023-05-10T13:01:57;7.22;;;4.45;;
28459;SDS011;32528;45.712;9.192;2023-05-10T13:03:57;7.43;;;5.28;;
28459;SDS011;32528;45.712;9.192;2023-05-10T13:08:00;10.80;;;5.05;;
28459;SDS011;32528;45.712;9.192;2023-05-10T13:10:01;6.53;;;4.13;;
28459;SDS011;32528;45.712;9.192;2023-05-10T13:12:02;8.77;;;5.07;;
28459;SDS011;32528;45.712;9.192;2023-05-10T13:14:03;8.80;;;5.03;;
28459;SDS011;32528;45.712;9.192;2023-05-10T13:16:04;17.98;;;6.25;;
28459;SDS011;32528;45.712;9.192;2023-05-10T13:18:05;10.48;;;5.88;;
28459;SDS011;32528;45.712;9.192;2023-05-10T13:20:06;9.38;;;5.38;;
28459;SDS011;32528;45.712;9.192;2023-05-10T13:22:08;9.77;;;6.43;;
28459;SDS011;32528;45.712;9.192;2023-05-10T13:24:08;9.57;;;5.90;;
28459;SDS011;32528;45.712;9.192;2023-05-10T13:26:10;8.63;;;5.40;;
28459;SDS011;32528;45.712;9.192;2023-05-10T13:28:10;8.93;;;5.22;;
28459;SDS011;32528;45.712;9.192;2023-05-10T13:30:12;9.25;;;5.47;;
28459;SDS011;32528;45.712;9.192;2023-05-10T13:32:12;16.10;;;4.45;;
28459;SDS011;32528;45.712;9.192;2023-05-10T13:34:13;15.38;;;4.70;;
28459;SDS011;32528;45.712;9.192;2023-05-10T13:36:14;8.90;;;4.65;;
28459;SDS011;32528;45.712;9.192;2023-05-10T13:38:14;9.73;;;4.82;;
28459;SDS011;32528;45.712;9.192;2023-05-10T13:40:15;7.10;;;4.47;;
28459;SDS011;32528;45.712;9.192;2023-05-10T13:56:23;9.98;;;5.18;;
28459;SDS011;32528;45.712;9.192;2023-05-10T14:06:28;10.32;;;5.82;;
28459;SDS011;32528;45.712;9.192;2023-05-10T14:08:29;11.55;;;6.18;;
28459;SDS011;32528;45.712;9.192;2023-05-10T14:10:29;8.43;;;5.45;;
28459;SDS011;32528;45.712;9.192;2023-05-10T14:12:30;10.45;;;6.65;;
28459;SDS011;32528;45.712;9.192;2023-05-10T14:14:32;9.10;;;5.88;;
28459;SDS011;32528;45.712;9.192;2023-05-10T14:16:32;10.48;;;6.85;;
28459;SDS011;32528;45.712;9.192;2023-05-10T14:18:33;9.88;;;5.95;;
28459;SDS011;32528;45.712;9.192;2023-05-10T14:20:34;11.43;;;6.18;;
28459;SDS011;32528;45.712;9.192;2023-05-10T14:22:34;9.75;;;5.88;;
28459;SDS011;32528;45.712;9.192;2023-05-10T14:24:35;9.82;;;6.50;;
28459;SDS011;32528;45.712;9.192;2023-05-10T14:26:37;10.30;;;5.97;;